createdAt,value
2023-06-08T00:00:31.479Z,77.68
2023-06-08T00:02:59.008Z,78.87
2023-06-08T00:05:27.104Z,77.86
2023-06-08T00:07:57.854Z,78.01
2023-06-08T00:10:24.763Z,77.86
2023-06-08T00:12:53.252Z,78.24
2023-06-08T00:15:20.778Z,78.59
2023-06-08T00:17:48.377Z,79.45
2023-06-08T00:20:15.197Z,79.03
2023-06-08T00:22:44.474Z,79.24
2023-06-08T00:25:11.653Z,79.13
2023-06-08T00:27:38.421Z,78.68
2023-06-08T00:30:06.147Z,78.86
2023-06-08T00:32:33.047Z,79.47
2023-06-08T00:34:59.826Z,78.67
2023-06-08T00:37:26.625Z,78.47
2023-06-08T00:39:53.379Z,78.77
2023-06-08T00:42:20.121Z,78.91
2023-06-08T00:44:46.867Z,79.49
2023-06-08T00:47:15.883Z,79.22
2023-06-08T00:49:46.355Z,80.22
2023-06-08T00:52:13.880Z,79.88
2023-06-08T00:54:40.793Z,79.76
2023-06-08T00:57:07.728Z,80.45
2023-06-08T00:59:35.279Z,80.90
2023-06-08T01:02:05.558Z,80.58
2023-06-08T01:04:32.994Z,80.55
2023-06-08T01:07:16.026Z,79.71
2023-06-08T01:10:02.405Z,80.19
2023-06-08T01:12:57.160Z,80.25
2023-06-08T01:15:32.118Z,80.87
2023-06-08T01:18:06.074Z,80.96
2023-06-08T01:20:43.150Z,80.90
2023-06-08T01:23:27.450Z,80.34
2023-06-08T01:25:57.463Z,80.51
2023-06-08T01:28:26.246Z,80.59
2023-06-08T01:30:53.637Z,80.50
2023-06-08T01:33:23.256Z,80.88
2023-06-08T01:36:14.469Z,80.68
2023-06-08T01:39:00.365Z,81.05
2023-06-08T01:41:33.589Z,80.39
2023-06-08T01:44:01.717Z,81.34
2023-06-08T01:46:30.458Z,81.56
2023-06-08T01:48:59.746Z,81.78
2023-06-08T01:51:28.388Z,81.28
2023-06-08T01:54:05.986Z,81.34
2023-06-08T01:56:34.184Z,81.13
2023-06-08T01:59:01.359Z,81.92
2023-06-08T02:01:28.228Z,81.94
2023-06-08T02:03:55.165Z,81.94
2023-06-08T02:06:21.892Z,82.11
2023-06-08T02:08:48.887Z,82.29
2023-06-08T02:11:15.754Z,82.83
2023-06-08T02:13:44.211Z,82.74
2023-06-08T02:16:12.804Z,82.97
2023-06-08T02:18:43.078Z,83.06
2023-06-08T02:21:11.369Z,82.94
2023-06-08T02:23:38.781Z,82.72
2023-06-08T02:26:07.451Z,82.59
2023-06-08T02:28:35.633Z,82.94
2023-06-08T02:31:07.097Z,83.32
2023-06-08T02:33:35.136Z,82.87
2023-06-08T02:36:02.076Z,83.05
2023-06-08T02:38:31.566Z,82.95
2023-06-08T02:40:58.446Z,82.75
2023-06-08T02:43:25.562Z,82.75
2023-06-08T02:45:52.327Z,82.65
2023-06-08T02:48:20.766Z,82.99
2023-06-08T02:50:47.667Z,82.84
2023-06-08T02:53:14.592Z,82.88
2023-06-08T02:55:41.381Z,83.08
2023-06-08T02:58:15.616Z,83.28
2023-06-08T03:00:42.391Z,83.04
2023-06-08T03:03:22.772Z,83.54
2023-06-08T03:05:51.913Z,83.19
2023-06-08T03:08:18.872Z,83.40
2023-06-08T03:10:46.070Z,84.09
2023-06-08T03:13:14.556Z,84.55
2023-06-08T03:15:42.519Z,84.65
2023-06-08T03:18:10.732Z,83.83
2023-06-08T03:20:38.843Z,83.66
2023-06-08T03:23:11.600Z,83.94
2023-06-08T03:25:40.755Z,83.39
2023-06-08T03:28:07.562Z,83.43
2023-06-08T03:30:34.270Z,82.99
2023-06-08T03:33:07.134Z,83.60
2023-06-08T03:35:50.149Z,83.91
2023-06-08T03:38:22.331Z,83.33
2023-06-08T03:40:50.906Z,84.20
2023-06-08T03:43:19.942Z,83.88
2023-06-08T03:45:47.926Z,83.87
2023-06-08T03:48:14.721Z,83.93
2023-06-08T03:50:45.230Z,83.40
2023-06-08T03:53:13.381Z,84.20
2023-06-08T03:55:40.221Z,83.59
2023-06-08T03:58:07.613Z,83.30
2023-06-08T04:00:34.549Z,83.01
2023-06-08T04:03:02.135Z,83.41
2023-06-08T04:05:29.220Z,83.25
2023-06-08T04:07:56.679Z,82.88
2023-06-08T04:10:24.551Z,82.91
2023-06-08T04:12:52.451Z,82.79
2023-06-08T04:15:19.327Z,83.43
2023-06-08T04:17:48.269Z,83.48
2023-06-08T04:20:19.129Z,83.38
2023-06-08T04:22:46.932Z,83.08
2023-06-08T04:25:15.143Z,82.93
2023-06-08T04:27:43.521Z,83.16
2023-06-08T04:30:11.781Z,83.47
2023-06-08T04:32:39.092Z,83.06
2023-06-08T04:35:06.801Z,83.43
2023-06-08T04:37:36.348Z,83.57
2023-06-08T04:40:05.455Z,83.06
2023-06-08T04:42:38.424Z,83.73
2023-06-08T04:45:09.216Z,83.46
2023-06-08T04:47:37.323Z,83.04
2023-06-08T04:50:04.791Z,82.71
2023-06-08T04:52:38.596Z,82.88
2023-06-08T04:55:06.166Z,82.76
2023-06-08T04:57:33.539Z,82.46
2023-06-08T05:00:00.536Z,82.23
2023-06-08T05:02:27.405Z,81.97
2023-06-08T05:04:54.679Z,81.84
2023-06-08T05:07:21.466Z,81.67
2023-06-08T05:09:48.250Z,82.13
2023-06-08T05:12:15.075Z,81.48
2023-06-08T05:14:42.640Z,80.93
2023-06-08T05:17:10.071Z,81.05
2023-06-08T05:19:37.001Z,81.56
2023-06-08T05:22:03.894Z,81.17
2023-06-08T05:24:30.861Z,80.77
2023-06-08T05:26:57.642Z,80.51
2023-06-08T05:29:24.504Z,80.34
2023-06-08T05:31:51.394Z,80.80
2023-06-08T05:34:19.212Z,80.92
2023-06-08T05:36:45.974Z,80.13
2023-06-08T05:39:12.611Z,79.74
2023-06-08T05:41:40.274Z,80.07
2023-06-08T05:44:07.045Z,77.64
2023-06-08T05:46:33.810Z,77.75
2023-06-08T05:49:00.771Z,78.32
2023-06-08T05:51:27.508Z,78.05
2023-06-08T05:53:54.195Z,77.99
2023-06-08T05:56:20.961Z,77.71
2023-06-08T05:58:49.804Z,77.78
2023-06-08T06:01:20.438Z,77.51
2023-06-08T06:03:48.427Z,76.79
2023-06-08T06:06:15.303Z,76.23
2023-06-08T06:08:44.502Z,75.38
2023-06-08T06:11:11.691Z,74.95
2023-06-08T06:13:38.375Z,74.43
2023-06-08T06:16:05.270Z,74.25
2023-06-08T06:18:33.511Z,73.61
2023-06-08T06:21:00.244Z,74.34
2023-06-08T06:23:27.130Z,73.15
2023-06-08T06:25:54.145Z,72.14
2023-06-08T06:28:21.102Z,70.72
2023-06-08T06:30:47.900Z,71.54
2023-06-08T06:33:14.658Z,72.43
2023-06-08T06:35:41.510Z,71.63
2023-06-08T06:38:08.237Z,71.15
2023-06-08T06:40:34.901Z,71.20
2023-06-08T06:43:01.672Z,71.63
2023-06-08T06:45:39.317Z,71.84
2023-06-08T06:48:06.317Z,70.99
2023-06-08T06:50:33.295Z,67.80
2023-06-08T06:53:00.146Z,67.55
2023-06-08T06:55:26.922Z,67.79
2023-06-08T06:57:53.781Z,66.41
2023-06-08T07:00:21.022Z,67.27
2023-06-08T07:02:48.659Z,67.07
2023-06-08T07:05:15.572Z,69.49
2023-06-08T07:07:42.277Z,68.20
2023-06-08T07:10:09.547Z,68.94
2023-06-08T07:12:36.577Z,69.31
2023-06-08T07:15:03.541Z,69.62
2023-06-08T07:17:30.528Z,69.53
2023-06-08T07:19:58.955Z,69.59
2023-06-08T07:22:55.266Z,70.18
2023-06-08T07:25:53.546Z,70.22
2023-06-08T07:28:04.110Z,69.47
2023-06-08T07:30:36.228Z,70.91
2023-06-08T07:33:04.575Z,69.32
2023-06-08T07:35:31.816Z,69.33
2023-06-08T07:37:58.793Z,69.62
2023-06-08T07:40:25.688Z,69.53
2023-06-08T07:42:52.759Z,69.85
2023-06-08T07:45:19.459Z,69.78
2023-06-08T07:47:46.671Z,69.99
2023-06-08T07:50:14.022Z,69.40
2023-06-08T07:52:44.916Z,69.05
2023-06-08T07:55:13.445Z,68.97
2023-06-08T07:57:40.397Z,69.27
2023-06-08T08:00:09.165Z,68.41
2023-06-08T08:02:42.957Z,68.41
2023-06-08T08:05:10.255Z,69.69
2023-06-08T08:07:37.659Z,70.24
2023-06-08T08:10:05.230Z,70.61
2023-06-08T08:12:32.247Z,70.64
2023-06-08T08:14:59.999Z,71.48
2023-06-08T08:17:27.770Z,72.18
2023-06-08T08:19:54.664Z,71.43
2023-06-08T08:22:23.374Z,70.96
2023-06-08T08:24:50.183Z,71.04
2023-06-08T08:27:18.692Z,71.68
2023-06-08T08:29:45.777Z,71.14
2023-06-08T08:32:12.631Z,72.32
2023-06-08T08:34:39.386Z,70.56
2023-06-08T08:37:06.453Z,69.11
2023-06-08T08:39:33.903Z,69.81
2023-06-08T08:42:07.349Z,69.17
2023-06-08T08:44:34.666Z,68.86
2023-06-08T08:47:03.805Z,68.32
2023-06-08T08:49:37.550Z,68.65
2023-06-08T08:52:09.734Z,68.80
2023-06-08T08:54:38.824Z,68.88
2023-06-08T08:57:07.806Z,68.69
2023-06-08T08:59:35.839Z,69.53
2023-06-08T09:02:04.480Z,69.21
2023-06-08T09:04:31.363Z,68.91
2023-06-08T09:06:58.244Z,69.00
2023-06-08T09:09:24.998Z,68.92
2023-06-08T09:12:03.272Z,68.66
2023-06-08T09:14:30.650Z,67.98
2023-06-08T09:17:00.309Z,66.36
2023-06-08T09:19:29.168Z,67.44
2023-06-08T09:21:56.404Z,67.16
2023-06-08T09:24:24.212Z,66.52
2023-06-08T09:26:57.463Z,65.59
2023-06-08T09:29:46.846Z,65.48
2023-06-08T09:32:15.333Z,65.93
2023-06-08T09:34:57.142Z,64.84
2023-06-08T09:37:30.258Z,65.39
2023-06-08T09:39:58.077Z,66.56
2023-06-08T09:42:42.444Z,64.76
2023-06-08T09:45:13.797Z,64.19
2023-06-08T09:47:41.474Z,64.18
2023-06-08T09:50:09.982Z,65.66
2023-06-08T09:52:38.424Z,65.31
2023-06-08T09:55:06.893Z,64.75
2023-06-08T09:57:38.241Z,63.80
2023-06-08T10:00:17.215Z,63.13
2023-06-08T10:02:55.970Z,62.39
2023-06-08T10:05:23.871Z,64.24
2023-06-08T10:07:53.880Z,62.79
2023-06-08T10:10:23.755Z,64.02
2023-06-08T10:12:52.025Z,62.15
2023-06-08T10:15:20.470Z,60.92
2023-06-08T10:17:48.667Z,61.41
2023-06-08T10:20:18.438Z,61.46
2023-06-08T10:22:46.863Z,61.74
2023-06-08T10:25:14.905Z,61.73
2023-06-08T10:27:53.241Z,61.60
2023-06-08T10:30:43.380Z,61.15
2023-06-08T10:33:12.193Z,62.54
2023-06-08T10:35:43.721Z,61.59
2023-06-08T10:38:11.555Z,61.41
2023-06-08T10:40:48.233Z,61.45
2023-06-08T10:43:45.562Z,62.36
2023-06-08T10:46:02.179Z,61.25
2023-06-08T10:48:38.159Z,61.10
2023-06-08T10:51:11.647Z,62.11
2023-06-08T10:53:55.666Z,60.75
2023-06-08T10:56:27.099Z,61.60
2023-06-08T10:58:54.832Z,61.14
2023-06-08T11:01:22.833Z,61.25
2023-06-08T11:03:50.273Z,61.04
2023-06-08T11:06:17.434Z,60.76
2023-06-08T11:08:44.369Z,60.03
2023-06-08T11:11:14.405Z,61.11
2023-06-08T11:13:41.177Z,60.68
2023-06-08T11:16:08.061Z,61.18
2023-06-08T11:18:35.636Z,62.82
2023-06-08T11:21:03.426Z,61.54
2023-06-08T11:23:35.364Z,59.36
2023-06-08T11:26:02.680Z,61.00
2023-06-08T11:28:29.532Z,61.18
2023-06-08T11:30:56.413Z,60.78
2023-06-08T11:33:23.190Z,58.82
2023-06-08T11:35:54.388Z,59.54
2023-06-08T11:38:25.122Z,57.77
2023-06-08T11:40:52.453Z,58.64
2023-06-08T11:43:21.795Z,56.93
2023-06-08T11:45:48.620Z,57.81
2023-06-08T11:48:17.582Z,57.84
2023-06-08T11:50:49.473Z,57.37
2023-06-08T11:53:24.080Z,57.06
2023-06-08T11:55:54.086Z,56.09
2023-06-08T11:58:33.058Z,55.37
2023-06-08T12:01:12.275Z,56.73
2023-06-08T12:03:50.565Z,56.30
2023-06-08T12:06:19.538Z,56.39
2023-06-08T12:08:46.783Z,56.06
2023-06-08T12:11:15.336Z,55.58
2023-06-08T12:13:43.689Z,54.73
2023-06-08T12:16:11.675Z,54.61
2023-06-08T12:18:43.642Z,54.19
2023-06-08T12:21:15.807Z,53.26
2023-06-08T12:23:44.362Z,53.34
2023-06-08T12:26:11.383Z,49.18
2023-06-08T12:28:39.546Z,46.83
2023-06-08T12:31:06.673Z,47.46
2023-06-08T12:33:34.521Z,48.80
2023-06-08T12:36:02.144Z,48.21
2023-06-08T12:38:29.310Z,48.03
2023-06-08T12:40:57.804Z,47.99
2023-06-08T12:43:26.420Z,48.70
2023-06-08T12:45:53.602Z,48.39
2023-06-08T12:48:23.891Z,49.97
2023-06-08T12:50:50.746Z,48.64
2023-06-08T12:53:17.455Z,51.25
2023-06-08T12:55:44.410Z,50.19
2023-06-08T12:58:12.133Z,49.71
2023-06-08T13:00:39.437Z,48.58
2023-06-08T13:03:08.816Z,49.51
2023-06-08T13:05:36.462Z,49.46
2023-06-08T13:08:07.878Z,48.20
2023-06-08T13:10:39.390Z,49.17
2023-06-08T13:13:08.301Z,49.64
2023-06-08T13:15:36.466Z,45.64
2023-06-08T13:18:04.719Z,48.14
2023-06-08T13:20:31.731Z,50.81
2023-06-08T13:22:58.820Z,52.06
2023-06-08T13:25:25.915Z,52.47
2023-06-08T13:27:53.172Z,52.75
2023-06-08T13:30:19.918Z,53.66
2023-06-08T13:32:46.900Z,52.57
2023-06-08T13:35:14.257Z,53.90
2023-06-08T13:37:41.992Z,53.54
2023-06-08T13:40:09.823Z,53.66
2023-06-08T13:42:37.103Z,54.17
2023-06-08T13:45:04.095Z,54.10
2023-06-08T13:47:30.841Z,53.64
2023-06-08T13:49:58.434Z,53.56
2023-06-08T13:52:25.282Z,53.75
2023-06-08T13:54:52.030Z,53.57
2023-06-08T13:57:18.849Z,54.45
2023-06-08T13:59:45.725Z,55.33
2023-06-08T14:02:12.605Z,55.08
2023-06-08T14:04:39.387Z,55.10
2023-06-08T14:07:06.626Z,55.02
2023-06-08T14:09:33.503Z,54.35
2023-06-08T14:12:00.188Z,54.02
2023-06-08T14:14:26.885Z,55.50
2023-06-08T14:16:53.973Z,55.10
2023-06-08T14:19:20.645Z,55.94
2023-06-08T14:21:47.381Z,54.49
2023-06-08T14:24:14.319Z,53.20
2023-06-08T14:26:41.444Z,53.49
2023-06-08T14:29:09.965Z,53.51
2023-06-08T14:31:37.014Z,54.14
2023-06-08T14:34:03.802Z,52.94
2023-06-08T14:36:30.633Z,54.38
2023-06-08T14:38:57.589Z,52.74
2023-06-08T14:41:24.458Z,51.60
2023-06-08T14:43:52.640Z,52.60
2023-06-08T14:46:20.328Z,52.90
2023-06-08T14:48:47.294Z,52.39
2023-06-08T14:51:32.417Z,53.11
2023-06-08T14:54:04.013Z,53.15
2023-06-08T14:56:30.830Z,53.05
2023-06-08T14:58:57.675Z,51.25
2023-06-08T15:01:24.522Z,50.88
2023-06-08T15:03:51.446Z,52.70
2023-06-08T15:06:18.185Z,53.11
2023-06-08T15:08:45.237Z,52.90
2023-06-08T15:11:18.472Z,52.49
2023-06-08T15:13:46.496Z,51.93
2023-06-08T15:16:13.247Z,49.75
2023-06-08T15:18:40.151Z,50.43
2023-06-08T15:21:07.087Z,50.04
2023-06-08T15:23:34.042Z,48.98
2023-06-08T15:26:00.819Z,50.48
2023-06-08T15:28:27.912Z,51.68
2023-06-08T15:30:54.927Z,51.11
2023-06-08T15:33:21.634Z,53.59
2023-06-08T15:35:48.820Z,53.02
2023-06-08T15:38:17.513Z,53.31
2023-06-08T15:40:47.441Z,53.48
2023-06-08T15:43:14.262Z,53.96
2023-06-08T15:45:41.485Z,53.69
2023-06-08T15:48:08.306Z,53.81
2023-06-08T15:50:35.239Z,54.55
2023-06-08T15:53:01.903Z,53.71
2023-06-08T15:55:28.831Z,54.40
2023-06-08T15:57:55.681Z,55.18
2023-06-08T16:00:22.643Z,55.57
2023-06-08T16:02:49.902Z,55.48
2023-06-08T16:05:16.806Z,55.72
2023-06-08T16:07:43.594Z,55.17
2023-06-08T16:10:10.878Z,55.37
2023-06-08T16:12:37.802Z,55.83
2023-06-08T16:15:06.259Z,56.08
2023-06-08T16:17:33.192Z,54.25
2023-06-08T16:20:00.261Z,54.40
2023-06-08T16:22:27.066Z,55.27
2023-06-08T16:24:53.834Z,55.82
2023-06-08T16:27:21.199Z,55.59
2023-06-08T16:29:48.502Z,55.40
2023-06-08T16:32:16.071Z,55.24
2023-06-08T16:34:42.959Z,54.45
2023-06-08T16:37:09.745Z,55.48
2023-06-08T16:39:36.563Z,56.09
2023-06-08T16:42:03.698Z,56.85
2023-06-08T16:44:30.408Z,56.21
2023-06-08T16:46:57.432Z,56.14
2023-06-08T16:49:24.183Z,56.87
2023-06-08T16:51:53.112Z,56.21
2023-06-08T16:54:20.150Z,56.75
2023-06-08T16:56:46.945Z,55.43
2023-06-08T16:59:15.339Z,56.13
2023-06-08T17:01:42.680Z,55.39
2023-06-08T17:04:09.842Z,56.35
2023-06-08T17:06:37.266Z,55.04
2023-06-08T17:09:04.254Z,55.69
2023-06-08T17:11:31.587Z,55.59
2023-06-08T17:13:59.815Z,56.63
2023-06-08T17:16:28.094Z,57.01
2023-06-08T17:18:55.362Z,56.70
2023-06-08T17:21:22.289Z,56.49
2023-06-08T17:23:49.956Z,56.06
2023-06-08T17:26:17.993Z,56.31
2023-06-08T17:28:45.008Z,56.83
2023-06-08T17:31:12.373Z,56.45
2023-06-08T17:33:39.178Z,56.97
2023-06-08T17:36:08.555Z,57.49
2023-06-08T17:38:35.411Z,58.13
2023-06-08T17:41:02.170Z,58.12
2023-06-08T17:43:31.010Z,58.45
2023-06-08T17:45:58.594Z,59.29
2023-06-08T17:48:25.461Z,60.11
2023-06-08T17:50:52.249Z,61.13
2023-06-08T17:53:19.044Z,62.22
2023-06-08T17:55:45.830Z,62.67
2023-06-08T17:58:12.612Z,63.34
2023-06-08T18:00:39.380Z,63.99
2023-06-08T18:03:08.069Z,64.39
2023-06-08T18:05:35.593Z,64.47
2023-06-08T18:08:02.370Z,65.20
2023-06-08T18:10:29.341Z,65.99
2023-06-08T18:12:56.176Z,66.51
2023-06-08T18:15:23.420Z,67.05
2023-06-08T18:17:50.475Z,67.83
2023-06-08T18:20:19.362Z,68.51
2023-06-08T18:22:46.345Z,68.82
2023-06-08T18:25:13.571Z,69.58
2023-06-08T18:27:41.866Z,70.12
2023-06-08T18:30:09.696Z,70.69
2023-06-08T18:32:38.581Z,70.91
2023-06-08T18:35:06.228Z,71.19
2023-06-08T18:37:33.557Z,71.79
2023-06-08T18:40:00.422Z,71.89
2023-06-08T18:42:27.221Z,72.13
2023-06-08T18:44:57.370Z,72.19
2023-06-08T18:47:26.357Z,73.18
2023-06-08T18:49:53.419Z,73.83
2023-06-08T18:52:20.154Z,74.00
2023-06-08T18:54:47.115Z,74.10
2023-06-08T18:57:14.448Z,74.23
2023-06-08T18:59:42.898Z,74.84
2023-06-08T19:02:10.310Z,74.99
2023-06-08T19:04:37.264Z,75.24
2023-06-08T19:07:04.521Z,75.92
2023-06-08T19:09:31.290Z,76.19
2023-06-08T19:11:58.170Z,76.53
2023-06-08T19:14:26.648Z,77.27
2023-06-08T19:16:54.050Z,77.66
2023-06-08T19:19:22.398Z,77.56
2023-06-08T19:21:50.346Z,78.06
2023-06-08T19:24:17.176Z,78.37
2023-06-08T19:26:43.969Z,78.52
2023-06-08T19:29:11.019Z,78.08
2023-06-08T19:31:38.042Z,77.94
2023-06-08T19:34:05.084Z,78.56
2023-06-08T19:36:31.874Z,78.53
2023-06-08T19:38:59.192Z,78.89
2023-06-08T19:41:27.459Z,79.12
2023-06-08T19:43:54.630Z,79.00
2023-06-08T19:46:22.714Z,79.46
2023-06-08T19:48:52.619Z,79.18
2023-06-08T19:51:19.849Z,79.45
2023-06-08T19:53:46.923Z,80.04
2023-06-08T19:56:15.556Z,79.69
2023-06-08T19:58:42.248Z,79.85
2023-06-08T20:01:09.171Z,79.66
2023-06-08T20:03:36.286Z,79.96
2023-06-08T20:06:03.228Z,80.39
2023-06-08T20:08:30.391Z,80.47
2023-06-08T20:10:57.511Z,81.18
2023-06-08T20:13:24.338Z,80.11
2023-06-08T20:15:51.385Z,79.83
2023-06-08T20:18:22.982Z,79.76
2023-06-08T20:20:50.693Z,79.41
2023-06-08T20:23:17.768Z,79.51
2023-06-08T20:25:45.810Z,79.29
2023-06-08T20:28:12.732Z,78.99
2023-06-08T20:30:39.584Z,79.31
2023-06-08T20:33:06.782Z,79.05
2023-06-08T20:35:33.774Z,78.89
2023-06-08T20:38:01.532Z,78.98
2023-06-08T20:40:28.387Z,78.50
2023-06-08T20:42:55.315Z,78.31
2023-06-08T20:45:22.599Z,78.58
2023-06-08T20:47:49.735Z,78.67
2023-06-08T20:50:16.582Z,78.25
2023-06-08T20:52:43.741Z,77.79
2023-06-08T20:55:10.732Z,77.96
2023-06-08T20:57:37.722Z,78.16
2023-06-08T21:00:09.598Z,78.20
2023-06-08T21:02:47.395Z,78.89
2023-06-08T21:05:18.778Z,79.01
2023-06-08T21:07:47.342Z,78.57
2023-06-08T21:10:16.315Z,78.63
2023-06-08T21:12:43.279Z,78.04
2023-06-08T21:15:10.204Z,78.70
2023-06-08T21:17:37.988Z,78.31
2023-06-08T21:20:05.768Z,78.43
2023-06-08T21:22:32.946Z,78.75
2023-06-08T21:24:59.738Z,79.06
2023-06-08T21:27:27.103Z,78.69
2023-06-08T21:29:54.472Z,78.84
2023-06-08T21:32:21.532Z,79.24
2023-06-08T21:34:49.445Z,79.35
2023-06-08T21:37:16.510Z,79.27
2023-06-08T21:39:43.607Z,79.07
2023-06-08T21:42:11.422Z,79.43
2023-06-08T21:44:39.048Z,79.77
2023-06-08T21:47:06.390Z,79.69
2023-06-08T21:49:33.046Z,79.23
2023-06-08T21:51:59.767Z,79.78
2023-06-08T21:54:26.526Z,79.54
2023-06-08T21:56:53.304Z,79.86
2023-06-08T21:59:21.305Z,79.79
2023-06-08T22:01:48.731Z,80.05
2023-06-08T22:04:15.653Z,80.45
2023-06-08T22:06:44.103Z,80.72
2023-06-08T22:09:10.977Z,79.87
2023-06-08T22:11:38.986Z,79.74
2023-06-08T22:14:07.100Z,80.14
2023-06-08T22:16:38.665Z,79.90
2023-06-08T22:19:07.661Z,80.29
2023-06-08T22:21:37.938Z,80.06
2023-06-08T22:24:05.187Z,80.81
2023-06-08T22:26:32.041Z,81.82
2023-06-08T22:28:58.818Z,81.93
2023-06-08T22:31:27.690Z,81.65
2023-06-08T22:33:54.794Z,80.88
2023-06-08T22:36:24.654Z,80.66
2023-06-08T22:38:52.052Z,81.34
2023-06-08T22:41:19.051Z,80.45
2023-06-08T22:43:45.889Z,81.26
2023-06-08T22:46:12.668Z,82.49
2023-06-08T22:48:42.059Z,82.54
2023-06-08T22:51:12.852Z,82.39
2023-06-08T22:53:39.770Z,81.94
2023-06-08T22:56:11.062Z,82.01
2023-06-08T22:58:38.220Z,82.22
2023-06-08T23:01:08.843Z,82.25
2023-06-08T23:03:36.457Z,81.93
2023-06-08T23:06:03.209Z,81.69
2023-06-08T23:08:31.393Z,82.56
2023-06-08T23:10:58.238Z,82.71
2023-06-08T23:13:27.408Z,82.95
2023-06-08T23:15:54.657Z,83.17
2023-06-08T23:18:33.813Z,83.29
2023-06-08T23:21:01.833Z,84.44
2023-06-08T23:23:29.432Z,83.54
2023-06-08T23:25:56.431Z,84.08
2023-06-08T23:28:23.211Z,84.11
2023-06-08T23:30:49.955Z,83.90
2023-06-08T23:33:16.808Z,84.64
2023-06-08T23:35:44.572Z,84.55
2023-06-08T23:38:11.694Z,83.27
2023-06-08T23:40:38.520Z,82.71
2023-06-08T23:43:05.407Z,83.07
2023-06-08T23:45:32.461Z,83.21
2023-06-08T23:48:02.835Z,82.33
2023-06-08T23:50:29.821Z,82.37
2023-06-08T23:52:56.823Z,82.88
2023-06-08T23:55:23.951Z,84.01
2023-06-08T23:57:51.346Z,83.56
